sensor_id;sensor_type;location;lat;lon;timestamp;pressure;altitude;pressure_sealevel;temperature;humidity
17209;BME280;8720;48.488;9.202;2023-04-24T00:00:32;96033.09;;;17.38;47.26
17209;BME280;8720;48.488;9.202;2023-04-24T00:03:00;96040.19;;;17.38;47.30
17209;BME280;8720;48.488;9.202;2023-04-24T00:05:27;96042.94;;;17.36;47.37
17209;BME280;8720;48.488;9.202;2023-04-24T00:07:55;96037.00;;;17.33;47.45
17209;BME280;8720;48.488;9.202;2023-04-24T00:10:22;96043.78;;;17.37;47.20
17209;BME280;8720;48.488;9.202;2023-04-24T00:12:51;96054.34;;;17.37;47.29
17209;BME280;8720;48.488;9.202;2023-04-24T00:15:18;96034.22;;;17.21;47.51
17209;BME280;8720;48.488;9.202;2023-04-24T00:17:46;96058.78;;;17.36;47.12
17209;BME280;8720;48.488;9.202;2023-04-24T00:20:13;96064.06;;;17.36;47.18
17209;BME280;8720;48.488;9.202;2023-04-24T00:22:40;96056.91;;;17.38;47.18
17209;BME280;8720;48.488;9.202;2023-04-24T00:25:08;96050.75;;;17.38;47.26
17209;BME280;8720;48.488;9.202;2023-04-24T00:27:36;96065.69;;;17.39;47.37
17209;BME280;8720;48.488;9.202;2023-04-24T00:30:07;96052.34;;;17.40;47.49
17209;BME280;8720;48.488;9.202;2023-04-24T00:32:35;96053.97;;;17.43;47.17
17209;BME280;8720;48.488;9.202;2023-04-24T00:35:02;96047.72;;;17.44;47.30
17209;BME280;8720;48.488;9.202;2023-04-24T00:37:30;96045.91;;;17.44;47.35
17209;BME280;8720;48.488;9.202;2023-04-24T00:39:57;96045.69;;;17.47;47.07
17209;BME280;8720;48.488;9.202;2023-04-24T00:42:25;96043.84;;;17.49;47.01
17209;BME280;8720;48.488;9.202;2023-04-24T00:44:53;96044.69;;;17.50;47.10
17209;BME280;8720;48.488;9.202;2023-04-24T00:47:22;96042.69;;;17.53;47.05
17209;BME280;8720;48.488;9.202;2023-04-24T00:49:49;96040.78;;;17.55;47.11
17209;BME280;8720;48.488;9.202;2023-04-24T00:52:18;96030.19;;;17.55;47.01
17209;BME280;8720;48.488;9.202;2023-04-24T00:54:46;96031.91;;;17.56;47.05
17209;BME280;8720;48.488;9.202;2023-04-24T00:57:14;96031.06;;;17.56;47.20
17209;BME280;8720;48.488;9.202;2023-04-24T00:59:42;96035.38;;;17.57;47.13
17209;BME280;8720;48.488;9.202;2023-04-24T01:02:11;96028.13;;;17.60;46.99
17209;BME280;8720;48.488;9.202;2023-04-24T01:04:40;96032.44;;;17.61;46.91
17209;BME280;8720;48.488;9.202;2023-04-24T01:07:08;96024.50;;;17.61;47.13
17209;BME280;8720;48.488;9.202;2023-04-24T01:09:38;96020.72;;;17.65;47.18
17209;BME280;8720;48.488;9.202;2023-04-24T01:12:07;96008.41;;;17.52;47.38
17209;BME280;8720;48.488;9.202;2023-04-24T01:14:37;96026.22;;;17.62;47.53
17209;BME280;8720;48.488;9.202;2023-04-24T01:17:05;96026.28;;;17.61;47.80
17209;BME280;8720;48.488;9.202;2023-04-24T01:19:33;96034.34;;;17.59;47.82
17209;BME280;8720;48.488;9.202;2023-04-24T01:22:02;96031.81;;;17.58;47.97
17209;BME280;8720;48.488;9.202;2023-04-24T01:24:32;96029.47;;;17.53;48.44
17209;BME280;8720;48.488;9.202;2023-04-24T01:26:59;96026.28;;;17.48;48.62
17209;BME280;8720;48.488;9.202;2023-04-24T01:29:27;96029.09;;;17.45;49.06
17209;BME280;8720;48.488;9.202;2023-04-24T01:31:55;96028.44;;;17.42;49.07
17209;BME280;8720;48.488;9.202;2023-04-24T01:34:24;96014.59;;;17.38;49.06
17209;BME280;8720;48.488;9.202;2023-04-24T01:36:52;96021.03;;;17.34;49.64
17209;BME280;8720;48.488;9.202;2023-04-24T01:39:19;96010.78;;;17.30;49.70
17209;BME280;8720;48.488;9.202;2023-04-24T01:41:50;96013.72;;;17.25;49.73
17209;BME280;8720;48.488;9.202;2023-04-24T01:44:19;96004.41;;;17.19;49.79
17209;BME280;8720;48.488;9.202;2023-04-24T01:46:46;96006.47;;;17.14;49.92
17209;BME280;8720;48.488;9.202;2023-04-24T01:49:13;96002.44;;;17.09;50.11
17209;BME280;8720;48.488;9.202;2023-04-24T01:51:41;96000.19;;;17.03;50.20
17209;BME280;8720;48.488;9.202;2023-04-24T01:54:08;96005.88;;;16.97;50.23
17209;BME280;8720;48.488;9.202;2023-04-24T01:56:40;96003.66;;;16.91;50.10
17209;BME280;8720;48.488;9.202;2023-04-24T01:59:10;96012.75;;;16.87;50.37
17209;BME280;8720;48.488;9.202;2023-04-24T02:04:12;96007.00;;;16.80;50.27
17209;BME280;8720;48.488;9.202;2023-04-24T02:06:40;96009.75;;;16.79;50.42
17209;BME280;8720;48.488;9.202;2023-04-24T02:09:07;96012.47;;;16.77;50.73
17209;BME280;8720;48.488;9.202;2023-04-24T02:11:36;96020.47;;;16.76;50.85
17209;BME280;8720;48.488;9.202;2023-04-24T02:16:43;96016.38;;;16.72;51.38
17209;BME280;8720;48.488;9.202;2023-04-24T02:19:11;96020.91;;;16.70;51.41
17209;BME280;8720;48.488;9.202;2023-04-24T02:21:38;96022.78;;;16.68;51.36
17209;BME280;8720;48.488;9.202;2023-04-24T02:24:08;95989.78;;;16.47;51.62
17209;BME280;8720;48.488;9.202;2023-04-24T02:26:36;96019.47;;;16.64;51.84
17209;BME280;8720;48.488;9.202;2023-04-24T02:29:03;96015.38;;;16.60;51.72
17209;BME280;8720;48.488;9.202;2023-04-24T02:31:30;96024.31;;;16.58;51.68
17209;BME280;8720;48.488;9.202;2023-04-24T02:33:59;96015.81;;;16.53;51.87
17209;BME280;8720;48.488;9.202;2023-04-24T02:36:26;96011.75;;;16.47;52.05
17209;BME280;8720;48.488;9.202;2023-04-24T02:38:53;96016.19;;;16.47;52.14
17209;BME280;8720;48.488;9.202;2023-04-24T02:41:21;96013.72;;;16.44;52.58
17209;BME280;8720;48.488;9.202;2023-04-24T02:43:48;96009.47;;;16.41;52.57
17209;BME280;8720;48.488;9.202;2023-04-24T02:46:15;96010.44;;;16.40;52.66
17209;BME280;8720;48.488;9.202;2023-04-24T02:48:44;96001.97;;;16.35;52.75
17209;BME280;8720;48.488;9.202;2023-04-24T02:51:13;96003.94;;;16.31;52.81
17209;BME280;8720;48.488;9.202;2023-04-24T02:53:40;96013.66;;;16.31;52.87
17209;BME280;8720;48.488;9.202;2023-04-24T02:56:08;96011.03;;;16.31;53.12
17209;BME280;8720;48.488;9.202;2023-04-24T02:58:38;96012.81;;;16.30;52.97
17209;BME280;8720;48.488;9.202;2023-04-24T03:01:05;96008.38;;;16.31;53.15
17209;BME280;8720;48.488;9.202;2023-04-24T03:03:32;96000.53;;;16.29;52.99
17209;BME280;8720;48.488;9.202;2023-04-24T03:06:00;96004.03;;;16.30;53.19
17209;BME280;8720;48.488;9.202;2023-04-24T03:08:29;96006.69;;;16.30;53.16
17209;BME280;8720;48.488;9.202;2023-04-24T03:10:56;96012.81;;;16.30;53.14
17209;BME280;8720;48.488;9.202;2023-04-24T03:13:23;96001.41;;;16.30;53.29
17209;BME280;8720;48.488;9.202;2023-04-24T03:15:50;96015.47;;;16.30;53.15
17209;BME280;8720;48.488;9.202;2023-04-24T03:18:18;96021.66;;;16.29;53.30
17209;BME280;8720;48.488;9.202;2023-04-24T03:20:47;96023.38;;;16.30;53.55
17209;BME280;8720;48.488;9.202;2023-04-24T03:23:14;96026.00;;;16.30;53.67
17209;BME280;8720;48.488;9.202;2023-04-24T03:25:43;96020.72;;;16.30;53.61
17209;BME280;8720;48.488;9.202;2023-04-24T03:28:12;95989.53;;;16.09;53.55
17209;BME280;8720;48.488;9.202;2023-04-24T03:30:46;96020.19;;;16.25;53.78
17209;BME280;8720;48.488;9.202;2023-04-24T03:33:14;95999.25;;;16.22;54.02
17209;BME280;8720;48.488;9.202;2023-04-24T03:35:53;96004.78;;;16.18;53.92
17209;BME280;8720;48.488;9.202;2023-04-24T03:38:20;96006.03;;;16.12;53.99
17209;BME280;8720;48.488;9.202;2023-04-24T03:40:51;95995.94;;;16.05;54.15
17209;BME280;8720;48.488;9.202;2023-04-24T03:43:38;95994.81;;;15.95;54.23
17209;BME280;8720;48.488;9.202;2023-04-24T03:46:06;95996.91;;;15.90;54.24
17209;BME280;8720;48.488;9.202;2023-04-24T03:48:39;95986.72;;;15.84;54.36
17209;BME280;8720;48.488;9.202;2023-04-24T03:51:08;95996.41;;;15.83;54.55
17209;BME280;8720;48.488;9.202;2023-04-24T03:53:38;95993.00;;;15.81;54.41
17209;BME280;8720;48.488;9.202;2023-04-24T03:56:07;95991.53;;;15.77;54.45
17209;BME280;8720;48.488;9.202;2023-04-24T03:58:35;95994.44;;;15.73;54.67
17209;BME280;8720;48.488;9.202;2023-04-24T04:01:02;95996.31;;;15.71;54.61
17209;BME280;8720;48.488;9.202;2023-04-24T04:03:59;96001.69;;;15.69;54.71
17209;BME280;8720;48.488;9.202;2023-04-24T04:06:27;95995.56;;;15.69;54.84
17209;BME280;8720;48.488;9.202;2023-04-24T04:08:57;95990.38;;;15.67;54.94
17209;BME280;8720;48.488;9.202;2023-04-24T04:11:26;96001.97;;;15.65;54.93
17209;BME280;8720;48.488;9.202;2023-04-24T04:13:53;96000.34;;;15.62;55.14
17209;BME280;8720;48.488;9.202;2023-04-24T04:16:22;96003.84;;;15.63;55.26
17209;BME280;8720;48.488;9.202;2023-04-24T04:18:53;96003.94;;;15.61;55.21
17209;BME280;8720;48.488;9.202;2023-04-24T04:21:21;96015.34;;;15.62;55.26
17209;BME280;8720;48.488;9.202;2023-04-24T04:23:52;96027.56;;;15.63;55.26
17209;BME280;8720;48.488;9.202;2023-04-24T04:26:27;96016.16;;;15.62;55.28
17209;BME280;8720;48.488;9.202;2023-04-24T04:29:06;96022.28;;;15.63;55.16
17209;BME280;8720;48.488;9.202;2023-04-24T04:31:36;96019.75;;;15.61;55.15
17209;BME280;8720;48.488;9.202;2023-04-24T04:34:09;96026.72;;;15.62;55.23
17209;BME280;8720;48.488;9.202;2023-04-24T04:36:38;96032.56;;;15.67;55.63
17209;BME280;8720;48.488;9.202;2023-04-24T04:39:32;96034.25;;;15.68;55.49
17209;BME280;8720;48.488;9.202;2023-04-24T04:42:03;96018.03;;;15.60;55.75
17209;BME280;8720;48.488;9.202;2023-04-24T04:44:38;96042.75;;;15.73;55.50
17209;BME280;8720;48.488;9.202;2023-04-24T04:47:07;96053.13;;;15.76;55.54
17209;BME280;8720;48.488;9.202;2023-04-24T04:49:37;96039.88;;;15.62;55.62
17209;BME280;8720;48.488;9.202;2023-04-24T04:52:07;96089.88;;;15.79;55.67
17209;BME280;8720;48.488;9.202;2023-04-24T04:54:35;96097.94;;;15.76;55.78
17209;BME280;8720;48.488;9.202;2023-04-24T04:57:05;96109.81;;;15.69;55.83
17209;BME280;8720;48.488;9.202;2023-04-24T04:59:32;96116.53;;;15.59;56.34
17209;BME280;8720;48.488;9.202;2023-04-24T05:02:05;96116.47;;;15.45;56.46
17209;BME280;8720;48.488;9.202;2023-04-24T05:04:32;96111.81;;;15.34;56.68
17209;BME280;8720;48.488;9.202;2023-04-24T05:06:59;96121.25;;;15.23;56.94
17209;BME280;8720;48.488;9.202;2023-04-24T05:09:32;96122.53;;;15.16;57.31
17209;BME280;8720;48.488;9.202;2023-04-24T05:12:06;96138.75;;;15.08;57.57
17209;BME280;8720;48.488;9.202;2023-04-24T05:14:40;96143.44;;;15.03;57.67
17209;BME280;8720;48.488;9.202;2023-04-24T05:17:08;96138.41;;;14.99;57.59
17209;BME280;8720;48.488;9.202;2023-04-24T05:19:36;96143.00;;;14.95;57.68
17209;BME280;8720;48.488;9.202;2023-04-24T05:22:05;96143.25;;;14.91;57.72
17209;BME280;8720;48.488;9.202;2023-04-24T05:24:35;96139.09;;;14.87;57.91
17209;BME280;8720;48.488;9.202;2023-04-24T05:27:27;96148.88;;;14.85;58.12
17209;BME280;8720;48.488;9.202;2023-04-24T05:29:55;96163.06;;;14.82;58.15
17209;BME280;8720;48.488;9.202;2023-04-24T05:32:22;96175.47;;;14.80;58.04
17209;BME280;8720;48.488;9.202;2023-04-24T05:34:49;96181.72;;;14.78;58.16
17209;BME280;8720;48.488;9.202;2023-04-24T05:37:17;96192.44;;;14.75;58.26
17209;BME280;8720;48.488;9.202;2023-04-24T05:39:44;96185.53;;;14.72;58.32
17209;BME280;8720;48.488;9.202;2023-04-24T05:42:11;96179.59;;;14.69;58.43
17209;BME280;8720;48.488;9.202;2023-04-24T05:44:40;96171.94;;;14.64;58.46
17209;BME280;8720;48.488;9.202;2023-04-24T05:47:07;96172.19;;;14.60;58.55
17209;BME280;8720;48.488;9.202;2023-04-24T05:49:35;96176.84;;;14.54;58.61
17209;BME280;8720;48.488;9.202;2023-04-24T05:52:02;96184.06;;;14.51;58.73
17209;BME280;8720;48.488;9.202;2023-04-24T05:54:31;96191.94;;;14.51;58.80
17209;BME280;8720;48.488;9.202;2023-04-24T05:56:58;96195.44;;;14.51;59.02
17209;BME280;8720;48.488;9.202;2023-04-24T05:59:46;96186.59;;;14.52;59.10
17209;BME280;8720;48.488;9.202;2023-04-24T06:02:15;96196.03;;;14.56;58.99
17209;BME280;8720;48.488;9.202;2023-04-24T06:04:44;96203.63;;;14.63;59.44
17209;BME280;8720;48.488;9.202;2023-04-24T06:07:12;96197.94;;;14.70;59.39
17209;BME280;8720;48.488;9.202;2023-04-24T06:09:42;96201.09;;;14.77;59.69
17209;BME280;8720;48.488;9.202;2023-04-24T06:12:09;96204.19;;;14.85;59.56
17209;BME280;8720;48.488;9.202;2023-04-24T06:14:53;96206.41;;;14.92;59.73
17209;BME280;8720;48.488;9.202;2023-04-24T06:17:26;96199.44;;;15.07;60.48
17209;BME280;8720;48.488;9.202;2023-04-24T06:19:54;96200.94;;;15.43;61.37
17209;BME280;8720;48.488;9.202;2023-04-24T06:22:24;96208.28;;;15.84;61.52
17209;BME280;8720;48.488;9.202;2023-04-24T06:24:51;96200.84;;;16.20;61.20
17209;BME280;8720;48.488;9.202;2023-04-24T06:27:18;96196.56;;;16.47;60.58
17209;BME280;8720;48.488;9.202;2023-04-24T06:29:46;96196.16;;;16.69;59.69
17209;BME280;8720;48.488;9.202;2023-04-24T06:32:21;96189.53;;;16.76;59.40
17209;BME280;8720;48.488;9.202;2023-04-24T06:34:48;96184.16;;;16.91;59.37
17209;BME280;8720;48.488;9.202;2023-04-24T06:37:16;96171.97;;;17.17;59.92
17209;BME280;8720;48.488;9.202;2023-04-24T06:39:43;96181.13;;;17.66;60.17
17209;BME280;8720;48.488;9.202;2023-04-24T06:42:10;96184.25;;;18.25;60.51
17209;BME280;8720;48.488;9.202;2023-04-24T06:44:37;96194.25;;;18.84;60.31
17209;BME280;8720;48.488;9.202;2023-04-24T06:47:07;96199.63;;;19.45;59.55
17209;BME280;8720;48.488;9.202;2023-04-24T06:49:37;96172.94;;;19.83;58.70
17209;BME280;8720;48.488;9.202;2023-04-24T06:52:05;96193.47;;;20.39;57.15
17209;BME280;8720;48.488;9.202;2023-04-24T06:54:32;96180.41;;;20.82;57.22
17209;BME280;8720;48.488;9.202;2023-04-24T06:57:00;96185.66;;;21.28;55.92
17209;BME280;8720;48.488;9.202;2023-04-24T06:59:28;96188.28;;;21.50;54.25
17209;BME280;8720;48.488;9.202;2023-04-24T07:01:57;96192.88;;;21.59;53.57
17209;BME280;8720;48.488;9.202;2023-04-24T07:04:24;96192.38;;;21.65;53.14
17209;BME280;8720;48.488;9.202;2023-04-24T07:06:53;96196.59;;;21.79;52.77
17209;BME280;8720;48.488;9.202;2023-04-24T07:09:21;96209.38;;;22.07;53.57
17209;BME280;8720;48.488;9.202;2023-04-24T07:11:49;96210.47;;;22.36;52.34
17209;BME280;8720;48.488;9.202;2023-04-24T07:14:17;96212.84;;;22.50;51.65
17209;BME280;8720;48.488;9.202;2023-04-24T07:16:44;96209.03;;;22.52;50.36
17209;BME280;8720;48.488;9.202;2023-04-24T07:19:12;96206.78;;;22.48;49.57
17209;BME280;8720;48.488;9.202;2023-04-24T07:21:40;96211.59;;;22.54;49.44
17209;BME280;8720;48.488;9.202;2023-04-24T07:24:08;96208.41;;;22.60;48.74
17209;BME280;8720;48.488;9.202;2023-04-24T07:26:37;96218.72;;;22.65;45.02
17209;BME280;8720;48.488;9.202;2023-04-24T07:29:06;96214.59;;;22.61;42.14
17209;BME280;8720;48.488;9.202;2023-04-24T07:31:33;96222.72;;;22.27;44.54
17209;BME280;8720;48.488;9.202;2023-04-24T07:34:01;96228.53;;;21.90;45.59
17209;BME280;8720;48.488;9.202;2023-04-24T07:36:28;96238.75;;;21.51;46.58
17209;BME280;8720;48.488;9.202;2023-04-24T07:38:57;96251.56;;;21.13;46.70
17209;BME280;8720;48.488;9.202;2023-04-24T07:41:26;96247.19;;;20.66;47.11
17209;BME280;8720;48.488;9.202;2023-04-24T07:43:54;96258.16;;;20.27;48.15
17209;BME280;8720;48.488;9.202;2023-04-24T07:46:21;96262.63;;;19.90;49.11
17209;BME280;8720;48.488;9.202;2023-04-24T07:48:49;96274.19;;;19.66;50.11
17209;BME280;8720;48.488;9.202;2023-04-24T07:51:16;96258.81;;;19.46;50.29
17209;BME280;8720;48.488;9.202;2023-04-24T07:53:44;96262.44;;;19.32;50.88
17209;BME280;8720;48.488;9.202;2023-04-24T07:56:11;96279.72;;;19.25;50.47
17209;BME280;8720;48.488;9.202;2023-04-24T07:58:40;96276.56;;;19.08;50.05
17209;BME280;8720;48.488;9.202;2023-04-24T08:01:07;96276.75;;;18.92;50.42
17209;BME280;8720;48.488;9.202;2023-04-24T08:03:34;96279.81;;;18.73;50.18
17209;BME280;8720;48.488;9.202;2023-04-24T08:06:02;96292.44;;;18.70;50.45
17209;BME280;8720;48.488;9.202;2023-04-24T08:08:30;96273.22;;;18.54;50.79
17209;BME280;8720;48.488;9.202;2023-04-24T08:10:58;96299.59;;;18.55;50.46
17209;BME280;8720;48.488;9.202;2023-04-24T08:13:26;96291.13;;;18.50;50.45
17209;BME280;8720;48.488;9.202;2023-04-24T08:15:55;96302.88;;;18.46;50.57
17209;BME280;8720;48.488;9.202;2023-04-24T08:18:23;96296.63;;;18.47;50.69
17209;BME280;8720;48.488;9.202;2023-04-24T08:20:50;96300.97;;;18.61;50.86
17209;BME280;8720;48.488;9.202;2023-04-24T08:23:18;96317.91;;;18.85;51.13
17209;BME280;8720;48.488;9.202;2023-04-24T08:25:45;96282.16;;;18.90;50.38
17209;BME280;8720;48.488;9.202;2023-04-24T08:28:13;96292.56;;;19.06;49.97
17209;BME280;8720;48.488;9.202;2023-04-24T08:30:46;96300.22;;;19.11;49.27
17209;BME280;8720;48.488;9.202;2023-04-24T08:33:15;96326.63;;;19.12;48.74
17209;BME280;8720;48.488;9.202;2023-04-24T08:35:42;96322.91;;;19.02;48.40
17209;BME280;8720;48.488;9.202;2023-04-24T08:38:10;96317.69;;;18.88;48.07
17209;BME280;8720;48.488;9.202;2023-04-24T08:40:37;96323.16;;;18.72;48.00
17209;BME280;8720;48.488;9.202;2023-04-24T08:43:06;96325.91;;;18.58;48.08
17209;BME280;8720;48.488;9.202;2023-04-24T08:45:33;96333.63;;;18.49;48.67
17209;BME280;8720;48.488;9.202;2023-04-24T08:48:02;96325.28;;;18.41;48.37
17209;BME280;8720;48.488;9.202;2023-04-24T08:50:34;96309.56;;;18.25;47.95
17209;BME280;8720;48.488;9.202;2023-04-24T08:53:03;96317.03;;;18.18;47.66
17209;BME280;8720;48.488;9.202;2023-04-24T08:55:32;96316.44;;;18.01;48.15
17209;BME280;8720;48.488;9.202;2023-04-24T08:58:02;96328.94;;;17.99;47.86
17209;BME280;8720;48.488;9.202;2023-04-24T09:00:30;96333.66;;;17.94;48.50
17209;BME280;8720;48.488;9.202;2023-04-24T09:03:00;96332.16;;;17.90;48.08
17209;BME280;8720;48.488;9.202;2023-04-24T09:05:30;96339.44;;;17.86;47.96
17209;BME280;8720;48.488;9.202;2023-04-24T09:08:01;96328.19;;;17.83;48.10
17209;BME280;8720;48.488;9.202;2023-04-24T09:10:29;96327.44;;;17.81;47.78
17209;BME280;8720;48.488;9.202;2023-04-24T09:12:58;96322.91;;;17.83;48.15
17209;BME280;8720;48.488;9.202;2023-04-24T09:15:28;96322.81;;;17.84;48.29
17209;BME280;8720;48.488;9.202;2023-04-24T09:17:56;96315.50;;;17.88;48.32
17209;BME280;8720;48.488;9.202;2023-04-24T09:20:23;96316.38;;;17.88;48.33
17209;BME280;8720;48.488;9.202;2023-04-24T09:22:54;96316.91;;;17.93;48.24
17209;BME280;8720;48.488;9.202;2023-04-24T09:25:31;96330.41;;;18.03;47.97
17209;BME280;8720;48.488;9.202;2023-04-24T09:28:02;96331.91;;;18.07;47.95
17209;BME280;8720;48.488;9.202;2023-04-24T09:30:31;96327.47;;;18.07;48.44
17209;BME280;8720;48.488;9.202;2023-04-24T09:33:13;96333.25;;;18.14;47.57
17209;BME280;8720;48.488;9.202;2023-04-24T09:35:41;96346.84;;;18.22;47.69
17209;BME280;8720;48.488;9.202;2023-04-24T09:38:10;96346.50;;;18.27;47.77
17209;BME280;8720;48.488;9.202;2023-04-24T09:40:40;96353.22;;;18.32;47.45
17209;BME280;8720;48.488;9.202;2023-04-24T09:43:11;96363.91;;;18.31;47.27
17209;BME280;8720;48.488;9.202;2023-04-24T09:45:39;96354.56;;;18.25;47.17
17209;BME280;8720;48.488;9.202;2023-04-24T09:48:10;96364.75;;;18.31;47.06
17209;BME280;8720;48.488;9.202;2023-04-24T09:50:37;96356.81;;;18.31;47.22
17209;BME280;8720;48.488;9.202;2023-04-24T09:53:06;96354.28;;;18.30;47.21
17209;BME280;8720;48.488;9.202;2023-04-24T09:55:45;96364.25;;;18.39;47.45
17209;BME280;8720;48.488;9.202;2023-04-24T09:58:14;96365.50;;;18.47;47.48
17209;BME280;8720;48.488;9.202;2023-04-24T10:00:41;96369.03;;;18.60;47.24
17209;BME280;8720;48.488;9.202;2023-04-24T10:03:08;96362.38;;;18.67;46.96
17209;BME280;8720;48.488;9.202;2023-04-24T10:05:37;96371.94;;;18.82;46.92
17209;BME280;8720;48.488;9.202;2023-04-24T10:08:11;96361.59;;;18.92;46.97
17209;BME280;8720;48.488;9.202;2023-04-24T10:10:43;96359.72;;;19.07;47.22
17209;BME280;8720;48.488;9.202;2023-04-24T10:13:13;96354.97;;;19.24;46.78
17209;BME280;8720;48.488;9.202;2023-04-24T10:15:42;96365.81;;;19.34;46.61
17209;BME280;8720;48.488;9.202;2023-04-24T10:18:10;96367.81;;;19.43;46.41
17209;BME280;8720;48.488;9.202;2023-04-24T10:20:40;96371.22;;;19.45;46.17
17209;BME280;8720;48.488;9.202;2023-04-24T10:23:07;96372.81;;;19.47;46.20
17209;BME280;8720;48.488;9.202;2023-04-24T10:25:36;96382.03;;;19.54;45.56
17209;BME280;8720;48.488;9.202;2023-04-24T10:28:05;96370.56;;;19.54;45.18
17209;BME280;8720;48.488;9.202;2023-04-24T10:30:34;96376.00;;;19.52;44.94
17209;BME280;8720;48.488;9.202;2023-04-24T10:33:02;96383.22;;;19.50;44.27
17209;BME280;8720;48.488;9.202;2023-04-24T10:35:32;96381.53;;;19.49;44.48
17209;BME280;8720;48.488;9.202;2023-04-24T10:38:06;96379.06;;;19.46;43.76
17209;BME280;8720;48.488;9.202;2023-04-24T10:40:36;96376.97;;;19.51;44.04
17209;BME280;8720;48.488;9.202;2023-04-24T10:43:07;96371.31;;;19.56;43.92
17209;BME280;8720;48.488;9.202;2023-04-24T10:45:37;96374.41;;;19.62;44.03
17209;BME280;8720;48.488;9.202;2023-04-24T10:48:07;96380.22;;;19.67;43.34
17209;BME280;8720;48.488;9.202;2023-04-24T10:50:45;96385.66;;;19.66;42.66
17209;BME280;8720;48.488;9.202;2023-04-24T10:53:15;96394.91;;;19.60;42.27
17209;BME280;8720;48.488;9.202;2023-04-24T10:55:46;96398.28;;;19.50;41.75
17209;BME280;8720;48.488;9.202;2023-04-24T10:58:15;96381.69;;;19.21;42.68
17209;BME280;8720;48.488;9.202;2023-04-24T11:00:56;96405.88;;;19.29;42.61
17209;BME280;8720;48.488;9.202;2023-04-24T11:03:26;96420.09;;;19.28;42.98
17209;BME280;8720;48.488;9.202;2023-04-24T11:06:00;96422.84;;;19.27;42.91
17209;BME280;8720;48.488;9.202;2023-04-24T11:08:31;96419.88;;;19.19;43.18
17209;BME280;8720;48.488;9.202;2023-04-24T11:11:03;96435.13;;;19.15;42.95
17209;BME280;8720;48.488;9.202;2023-04-24T11:14:05;96434.25;;;19.02;44.22
17209;BME280;8720;48.488;9.202;2023-04-24T11:16:37;96422.38;;;18.95;43.53
17209;BME280;8720;48.488;9.202;2023-04-24T11:19:08;96434.47;;;18.99;44.09
17209;BME280;8720;48.488;9.202;2023-04-24T11:21:45;96434.16;;;19.03;43.99
17209;BME280;8720;48.488;9.202;2023-04-24T11:24:31;96437.53;;;19.05;44.01
17209;BME280;8720;48.488;9.202;2023-04-24T11:27:06;96439.16;;;19.08;43.41
17209;BME280;8720;48.488;9.202;2023-04-24T11:29:44;96437.13;;;19.12;43.31
17209;BME280;8720;48.488;9.202;2023-04-24T11:32:29;96429.28;;;19.10;43.86
17209;BME280;8720;48.488;9.202;2023-04-24T11:34:58;96436.63;;;19.19;43.63
17209;BME280;8720;48.488;9.202;2023-04-24T11:37:33;96439.31;;;19.32;43.50
17209;BME280;8720;48.488;9.202;2023-04-24T11:40:03;96433.94;;;19.33;43.38
17209;BME280;8720;48.488;9.202;2023-04-24T11:42:35;96439.16;;;19.47;43.20
17209;BME280;8720;48.488;9.202;2023-04-24T11:45:09;96445.22;;;19.49;42.77
17209;BME280;8720;48.488;9.202;2023-04-24T11:47:37;96449.78;;;19.47;42.63
17209;BME280;8720;48.488;9.202;2023-04-24T11:50:08;96453.69;;;19.42;42.73
17209;BME280;8720;48.488;9.202;2023-04-24T11:52:39;96452.28;;;19.36;42.60
17209;BME280;8720;48.488;9.202;2023-04-24T11:55:12;96448.31;;;19.29;42.56
17209;BME280;8720;48.488;9.202;2023-04-24T11:57:53;96459.59;;;19.33;43.13
17209;BME280;8720;48.488;9.202;2023-04-24T12:00:25;96458.06;;;19.29;42.76
17209;BME280;8720;48.488;9.202;2023-04-24T12:03:05;96463.09;;;19.33;42.71
17209;BME280;8720;48.488;9.202;2023-04-24T12:05:33;96471.16;;;19.32;42.54
17209;BME280;8720;48.488;9.202;2023-04-24T12:08:01;96471.25;;;19.30;42.75
17209;BME280;8720;48.488;9.202;2023-04-24T12:10:31;96462.31;;;19.19;42.39
17209;BME280;8720;48.488;9.202;2023-04-24T12:12:59;96475.66;;;19.17;42.52
17209;BME280;8720;48.488;9.202;2023-04-24T12:15:28;96462.56;;;19.01;42.31
17209;BME280;8720;48.488;9.202;2023-04-24T12:17:57;96472.53;;;18.98;42.54
17209;BME280;8720;48.488;9.202;2023-04-24T12:20:27;96490.16;;;18.99;42.66
17209;BME280;8720;48.488;9.202;2023-04-24T12:22:57;96488.94;;;18.90;42.54
17209;BME280;8720;48.488;9.202;2023-04-24T12:25:26;96493.34;;;18.77;43.25
17209;BME280;8720;48.488;9.202;2023-04-24T12:28:08;96494.22;;;18.64;43.66
17209;BME280;8720;48.488;9.202;2023-04-24T12:30:42;96476.66;;;18.49;43.62
17209;BME280;8720;48.488;9.202;2023-04-24T12:33:11;96496.22;;;18.60;43.48
17209;BME280;8720;48.488;9.202;2023-04-24T12:35:40;96495.16;;;18.63;43.27
17209;BME280;8720;48.488;9.202;2023-04-24T12:38:10;96497.34;;;18.70;43.12
17209;BME280;8720;48.488;9.202;2023-04-24T12:40:38;96473.78;;;18.66;42.93
17209;BME280;8720;48.488;9.202;2023-04-24T12:43:14;96488.69;;;18.81;42.71
17209;BME280;8720;48.488;9.202;2023-04-24T12:45:43;96494.72;;;18.83;42.54
17209;BME280;8720;48.488;9.202;2023-04-24T12:48:12;96496.78;;;18.92;43.05
17209;BME280;8720;48.488;9.202;2023-04-24T12:50:39;96490.66;;;18.91;42.63
17209;BME280;8720;48.488;9.202;2023-04-24T12:53:08;96494.31;;;19.03;42.63
17209;BME280;8720;48.488;9.202;2023-04-24T12:55:37;96490.69;;;19.04;42.52
17209;BME280;8720;48.488;9.202;2023-04-24T12:58:04;96474.03;;;19.02;42.12
17209;BME280;8720;48.488;9.202;2023-04-24T13:00:32;96485.63;;;19.14;42.12
17209;BME280;8720;48.488;9.202;2023-04-24T13:03:01;96481.19;;;19.14;42.24
17209;BME280;8720;48.488;9.202;2023-04-24T13:05:29;96471.44;;;19.15;41.88
17209;BME280;8720;48.488;9.202;2023-04-24T13:07:57;96484.81;;;19.26;42.12
17209;BME280;8720;48.488;9.202;2023-04-24T13:10:24;96468.78;;;19.27;42.03
17209;BME280;8720;48.488;9.202;2023-04-24T13:12:52;96480.03;;;19.31;41.89
17209;BME280;8720;48.488;9.202;2023-04-24T13:15:20;96475.41;;;19.34;41.95
17209;BME280;8720;48.488;9.202;2023-04-24T13:17:47;96481.50;;;19.49;41.99
17209;BME280;8720;48.488;9.202;2023-04-24T13:20:16;96482.66;;;19.57;41.69
17209;BME280;8720;48.488;9.202;2023-04-24T13:22:43;96492.97;;;19.62;41.92
17209;BME280;8720;48.488;9.202;2023-04-24T13:25:11;96477.50;;;19.68;41.74
17209;BME280;8720;48.488;9.202;2023-04-24T13:27:38;96486.94;;;19.72;41.67